Time;durP1;ratioP1;P1;durP2;ratioP2;P2;SDS_P1;SDS_P2;PMS_P1;PMS_P2;Temp;Humidity;BMP_temperature;BMP_pressure;BME280_temperature;BME280_humidity;BME280_pressure;Samples;Min_cycle;Max_cycle;Signal;HPM_P1;HPM_P2
2024/01/06 00:01:54;;;;;;;8.98;7.30;;;;;;;;;;5153257;27;20171;-59
2024/01/06 00:04:21;;;;;;;9.50;7.35;;;;;;;;;;5153334;27;20047;-58
2024/01/06 00:06:49;;;;;;;9.63;7.65;;;;;;;;;;5153964;27;20054;-59
2024/01/06 00:09:16;;;;;;;9.10;8.20;;;;;;;;;;5153327;27;20051;-59
2024/01/06 00:11:42;;;;;;;9.07;7.90;;;;;;;;;;5153815;27;20051;-59
2024/01/06 00:14:09;;;;;;;8.40;7.50;;;;;;;;;;5153250;27;20114;-58
2024/01/06 00:16:36;;;;;;;10.55;9.45;;;;;;;;;;5153638;27;20054;-58
2024/01/06 00:19:03;;;;;;;10.55;8.70;;;;;;;;;;5153881;27;20061;-58
2024/01/06 00:21:30;;;;;;;10.75;9.65;;;;;;;;;;5153423;27;20046;-58
2024/01/06 00:23:58;;;;;;;8.60;7.80;;;;;;;;;;5153740;27;20403;-59
2024/01/06 00:26:25;;;;;;;10.18;8.18;;;;;;;;;;5153257;27;20051;-59
2024/01/06 00:28:52;;;;;;;10.43;9.27;;;;;;;;;;5153496;27;20054;-58
2024/01/06 00:31:19;;;;;;;10.13;8.70;;;;;;;;;;5153368;27;20047;-58
2024/01/06 00:33:46;;;;;;;10.57;9.57;;;;;;;;;;5153373;27;20057;-58
2024/01/06 00:36:13;;;;;;;11.85;10.18;;;;;;;;;;5153369;27;20057;-59
2024/01/06 00:38:40;;;;;;;11.15;9.73;;;;;;;;;;5153769;27;20050;-58
2024/01/06 00:41:08;;;;;;;10.90;9.80;;;;;;;;;;5156744;27;20054;-58
2024/01/06 00:43:35;;;;;;;12.48;10.85;;;;;;;;;;5157464;27;20069;-58
2024/01/06 00:46:02;;;;;;;11.85;10.23;;;;;;;;;;5156922;27;20051;-59
2024/01/06 00:48:28;;;;;;;11.40;10.20;;;;;;;;;;5157107;27;20050;-58
2024/01/06 00:50:55;;;;;;;13.52;11.25;;;;;;;;;;5157086;27;20063;-58
2024/01/06 00:53:22;;;;;;;11.50;10.32;;;;;;;;;;5156595;27;20059;-59
2024/01/06 00:55:49;;;;;;;10.70;9.60;;;;;;;;;;5157007;27;20111;-58
2024/01/06 00:58:17;;;;;;;10.85;9.73;;;;;;;;;;5157179;27;20480;-59
2024/01/06 01:00:44;;;;;;;10.77;9.68;;;;;;;;;;5156513;27;20061;-59
2024/01/06 01:03:11;;;;;;;13.23;11.02;;;;;;;;;;5156350;27;20053;-59
2024/01/06 01:05:38;;;;;;;11.68;10.27;;;;;;;;;;5156731;27;20108;-59
2024/01/06 01:08:05;;;;;;;11.90;10.70;;;;;;;;;;5156607;27;20051;-58
2024/01/06 01:10:31;;;;;;;12.15;10.95;;;;;;;;;;5156608;27;20434;-58
2024/01/06 01:12:58;;;;;;;12.57;11.02;;;;;;;;;;5156886;27;20073;-58
2024/01/06 01:15:26;;;;;;;13.88;11.00;;;;;;;;;;5156309;27;20042;-58
2024/01/06 01:17:53;;;;;;;14.43;12.45;;;;;;;;;;5156913;27;20050;-58
2024/01/06 01:20:20;;;;;;;14.70;12.48;;;;;;;;;;5156779;27;20055;-58
2024/01/06 01:22:47;;;;;;;14.15;11.80;;;;;;;;;;5156876;27;20051;-59
2024/01/06 01:25:14;;;;;;;13.25;11.85;;;;;;;;;;5156282;27;20046;-59
2024/01/06 01:27:40;;;;;;;12.00;10.73;;;;;;;;;;5156581;27;20050;-58
2024/01/06 01:30:08;;;;;;;10.98;9.88;;;;;;;;;;5156403;27;20403;-59
2024/01/06 01:32:36;;;;;;;11.45;10.20;;;;;;;;;;5156298;27;20074;-58
2024/01/06 01:35:03;;;;;;;9.65;8.60;;;;;;;;;;5156232;27;20047;-58
2024/01/06 01:37:29;;;;;;;9.65;8.65;;;;;;;;;;5156341;27;20058;-59
2024/01/06 01:39:56;;;;;;;10.23;9.00;;;;;;;;;;5155993;27;20429;-58
2024/01/06 01:42:23;;;;;;;11.00;8.73;;;;;;;;;;5155954;27;20073;-59
2024/01/06 01:44:50;;;;;;;10.38;9.25;;;;;;;;;;5156289;27;20051;-59
2024/01/06 01:47:18;;;;;;;10.43;9.30;;;;;;;;;;5155842;27;20395;-59
2024/01/06 01:49:47;;;;;;;11.82;10.50;;;;;;;;;;5155968;27;20055;-59
2024/01/06 01:52:14;;;;;;;10.52;9.50;;;;;;;;;;5154532;27;20056;-59
2024/01/06 01:54:41;;;;;;;11.75;10.27;;;;;;;;;;5155690;27;20047;-59
2024/01/06 01:57:08;;;;;;;11.18;10.07;;;;;;;;;;5155930;27;20499;-59
2024/01/06 01:59:35;;;;;;;12.65;11.05;;;;;;;;;;5155942;27;20047;-58
2024/01/06 02:02:03;;;;;;;13.98;10.98;;;;;;;;;;5155704;27;20054;-58
2024/01/06 02:04:29;;;;;;;11.73;10.52;;;;;;;;;;5155902;27;20049;-59
2024/01/06 02:06:58;;;;;;;12.57;11.27;;;;;;;;;;5155842;27;20053;-58
2024/01/06 02:09:27;;;;;;;13.60;12.20;;;;;;;;;;5155315;27;20069;-59
2024/01/06 02:11:53;;;;;;;12.60;11.27;;;;;;;;;;5155686;27;20065;-59
2024/01/06 02:14:20;;;;;;;13.15;11.73;;;;;;;;;;5155636;27;20047;-58
2024/01/06 02:16:47;;;;;;;13.70;11.48;;;;;;;;;;5155307;27;20057;-59
2024/01/06 02:19:16;;;;;;;14.02;12.23;;;;;;;;;;5155184;27;20047;-59
2024/01/06 02:21:44;;;;;;;12.50;11.18;;;;;;;;;;5155119;27;20058;-59
2024/01/06 02:24:12;;;;;;;12.80;11.13;;;;;;;;;;5155125;27;20051;-59
2024/01/06 02:26:39;;;;;;;13.60;11.93;;;;;;;;;;5155199;27;20503;-59
2024/01/06 02:29:06;;;;;;;12.95;11.40;;;;;;;;;;5155487;27;20062;-59
2024/01/06 02:31:33;;;;;;;12.77;11.38;;;;;;;;;;5154771;27;20073;-58
2024/01/06 02:33:59;;;;;;;13.40;11.50;;;;;;;;;;5155212;27;20054;-59
2024/01/06 02:36:26;;;;;;;12.73;9.85;;;;;;;;;;5154809;27;20053;-58
2024/01/06 02:38:53;;;;;;;11.68;9.88;;;;;;;;;;5154868;27;20054;-59
2024/01/06 02:41:21;;;;;;;11.07;9.93;;;;;;;;;;5154949;27;20046;-59
2024/01/06 02:43:48;;;;;;;11.02;9.93;;;;;;;;;;5154611;27;20058;-58
2024/01/06 02:46:15;;;;;;;9.73;7.75;;;;;;;;;;5153974;27;20053;-58
2024/01/06 02:48:42;;;;;;;8.65;7.70;;;;;;;;;;5154056;27;20070;-59
2024/01/06 02:51:08;;;;;;;7.47;6.10;;;;;;;;;;5154133;27;20467;-59
2024/01/06 02:53:35;;;;;;;4.72;3.85;;;;;;;;;;5153723;27;20415;-59
2024/01/06 02:56:02;;;;;;;4.47;3.58;;;;;;;;;;5153705;27;20050;-59
2024/01/06 02:58:30;;;;;;;5.50;3.63;;;;;;;;;;5154212;27;20062;-59
2024/01/06 03:00:57;;;;;;;4.50;3.60;;;;;;;;;;5154115;27;20057;-59
2024/01/06 03:03:24;;;;;;;4.13;3.08;;;;;;;;;;5153969;27;20054;-58
2024/01/06 03:05:51;;;;;;;4.18;3.28;;;;;;;;;;5154242;27;20479;-59
2024/01/06 03:08:18;;;;;;;4.13;3.65;;;;;;;;;;5154536;27;20051;-59
2024/01/06 03:10:44;;;;;;;4.40;3.97;;;;;;;;;;5154562;27;20057;-58
2024/01/06 03:13:11;;;;;;;4.97;3.88;;;;;;;;;;5154451;27;20503;-58
2024/01/06 03:15:39;;;;;;;4.80;3.65;;;;;;;;;;5154475;27;20050;-58
2024/01/06 03:18:06;;;;;;;4.35;3.75;;;;;;;;;;5154537;27;20055;-57
2024/01/06 03:20:33;;;;;;;4.40;3.35;;;;;;;;;;5154101;27;20050;-57
2024/01/06 03:23:00;;;;;;;5.40;4.85;;;;;;;;;;5154027;27;20054;-56
2024/01/06 03:25:26;;;;;;;6.28;4.93;;;;;;;;;;5153985;27;20054;-57
2024/01/06 03:27:53;;;;;;;6.65;5.05;;;;;;;;;;5154419;27;20068;-58
2024/01/06 03:30:20;;;;;;;6.15;5.03;;;;;;;;;;5153937;27;20063;-58
2024/01/06 03:32:48;;;;;;;7.00;5.15;;;;;;;;;;5154204;27;20051;-57
2024/01/06 03:35:16;;;;;;;6.25;5.53;;;;;;;;;;5153678;27;20047;-57
2024/01/06 03:37:44;;;;;;;6.28;5.10;;;;;;;;;;5154336;27;20058;-58
2024/01/06 03:40:12;;;;;;;6.85;5.50;;;;;;;;;;5153725;27;20053;-58
2024/01/06 03:42:38;;;;;;;7.88;5.82;;;;;;;;;;5154108;27;20061;-57
2024/01/06 03:45:06;;;;;;;7.18;5.95;;;;;;;;;;5154260;27;20419;-57
2024/01/06 03:47:33;;;;;;;7.93;6.40;;;;;;;;;;5154127;27;20475;-57
2024/01/06 03:50:01;;;;;;;10.38;7.88;;;;;;;;;;5153587;27;20430;-57
2024/01/06 03:52:27;;;;;;;8.80;7.43;;;;;;;;;;5153731;27;20051;-57
2024/01/06 03:54:54;;;;;;;7.97;7.07;;;;;;;;;;5153635;27;20487;-57
2024/01/06 03:57:21;;;;;;;9.98;7.60;;;;;;;;;;5153801;27;20051;-57
2024/01/06 03:59:48;;;;;;;9.35;7.43;;;;;;;;;;5154143;27;20484;-57
2024/01/06 04:02:15;;;;;;;9.77;8.15;;;;;;;;;;5153943;27;20047;-57
2024/01/06 04:04:41;;;;;;;11.18;8.40;;;;;;;;;;5153591;27;20058;-58
2024/01/06 04:07:09;;;;;;;11.30;7.97;;;;;;;;;;5153551;27;20055;-56
2024/01/06 04:09:36;;;;;;;11.00;8.85;;;;;;;;;;5153620;27;20058;-57
2024/01/06 04:12:03;;;;;;;10.23;9.00;;;;;;;;;;5153763;27;20051;-59
2024/01/06 04:14:30;;;;;;;10.98;9.50;;;;;;;;;;5154991;27;20054;-56
2024/01/06 04:16:57;;;;;;;12.52;9.38;;;;;;;;;;5157614;27;20042;-57
2024/01/06 04:19:23;;;;;;;11.10;9.45;;;;;;;;;;5157471;27;20064;-57
2024/01/06 04:21:50;;;;;;;13.65;10.38;;;;;;;;;;5157681;27;20062;-57
2024/01/06 04:24:19;;;;;;;14.48;10.52;;;;;;;;;;5157597;27;20046;-57
2024/01/06 04:26:45;;;;;;;12.65;9.52;;;;;;;;;;5157581;27;20053;-57
2024/01/06 04:29:12;;;;;;;14.85;11.23;;;;;;;;;;5157414;27;20495;-58
2024/01/06 04:31:39;;;;;;;17.55;12.68;;;;;;;;;;5157685;27;20058;-58
2024/01/06 04:34:06;;;;;;;18.23;14.05;;;;;;;;;;5157690;27;20059;-58
2024/01/06 04:36:33;;;;;;;14.43;11.32;;;;;;;;;;5157292;27;20395;-58
2024/01/06 04:38:59;;;;;;;17.48;12.60;;;;;;;;;;5157254;27;20069;-58
2024/01/06 04:41:28;;;;;;;18.05;12.70;;;;;;;;;;5156926;27;20053;-58
2024/01/06 04:43:54;;;;;;;17.88;13.07;;;;;;;;;;5153341;27;20389;-58
2024/01/06 04:46:21;;;;;;;19.15;13.77;;;;;;;;;;5135989;27;20043;-58
2024/01/06 04:48:48;;;;;;;17.17;12.48;;;;;;;;;;5135785;27;20047;-58
2024/01/06 04:51:15;;;;;;;16.55;12.13;;;;;;;;;;5136028;27;20058;-58
2024/01/06 04:53:42;;;;;;;18.38;12.73;;;;;;;;;;5135793;27;20051;-57
2024/01/06 04:56:09;;;;;;;16.85;12.05;;;;;;;;;;5135965;27;20047;-58
2024/01/06 04:58:37;;;;;;;18.88;12.75;;;;;;;;;;5135645;27;20058;-58
2024/01/06 05:01:04;;;;;;;20.48;12.77;;;;;;;;;;5135780;27;20411;-58
2024/01/06 05:03:30;;;;;;;19.25;12.80;;;;;;;;;;5136017;27;20062;-58
2024/01/06 05:05:57;;;;;;;20.10;13.57;;;;;;;;;;5135427;27;20069;-58
2024/01/06 05:08:24;;;;;;;18.98;14.10;;;;;;;;;;5135485;27;20062;-58
2024/01/06 05:10:53;;;;;;;18.10;13.15;;;;;;;;;;5135394;27;20055;-58
2024/01/06 05:13:20;;;;;;;15.77;11.77;;;;;;;;;;5135758;27;20066;-58
2024/01/06 05:15:48;;;;;;;16.42;11.85;;;;;;;;;;5135486;27;20484;-58
2024/01/06 05:18:15;;;;;;;17.02;12.50;;;;;;;;;;5135718;27;20051;-58
2024/01/06 05:20:41;;;;;;;15.18;10.98;;;;;;;;;;5135486;27;20407;-58
2024/01/06 05:23:08;;;;;;;15.07;10.73;;;;;;;;;;5135628;27;20047;-58
2024/01/06 05:25:35;;;;;;;15.05;11.45;;;;;;;;;;5153216;27;20050;-58
2024/01/06 05:28:02;;;;;;;15.77;11.38;;;;;;;;;;5156340;27;20053;-59
2024/01/06 05:30:28;;;;;;;15.18;10.50;;;;;;;;;;5156188;27;20046;-58
2024/01/06 05:32:57;;;;;;;14.90;10.38;;;;;;;;;;5156192;27;20059;-59
2024/01/06 05:35:24;;;;;;;17.45;12.13;;;;;;;;;;5156320;27;20051;-58
2024/01/06 05:37:50;;;;;;;15.02;10.80;;;;;;;;;;5156030;27;20514;-58
2024/01/06 05:40:17;;;;;;;15.60;11.60;;;;;;;;;;5156356;27;20479;-58
2024/01/06 05:42:44;;;;;;;14.65;10.85;;;;;;;;;;5155889;27;20081;-59
2024/01/06 05:45:11;;;;;;;17.58;11.88;;;;;;;;;;5155769;27;20408;-58
2024/01/06 05:47:38;;;;;;;13.35;9.80;;;;;;;;;;5155702;27;20047;-58
2024/01/06 05:50:09;;;;;;;15.38;10.60;;;;;;;;;;5155335;27;20051;-59
2024/01/06 05:52:35;;;;;;;15.23;10.77;;;;;;;;;;5155278;27;20066;-59
2024/01/06 05:55:02;;;;;;;15.32;10.20;;;;;;;;;;5155740;27;20062;-58
2024/01/06 05:57:29;;;;;;;16.25;11.20;;;;;;;;;;5155579;27;20471;-58
2024/01/06 05:59:56;;;;;;;15.98;11.18;;;;;;;;;;5156083;27;20054;-59
2024/01/06 06:02:23;;;;;;;17.25;11.88;;;;;;;;;;5155829;27;20051;-59
2024/01/06 06:04:49;;;;;;;16.50;11.63;;;;;;;;;;5155779;27;20050;-58
2024/01/06 06:07:18;;;;;;;17.65;12.20;;;;;;;;;;5155768;27;20522;-58
2024/01/06 06:09:47;;;;;;;15.95;11.77;;;;;;;;;;5155597;27;20061;-59
2024/01/06 06:12:13;;;;;;;18.08;11.82;;;;;;;;;;5155750;27;20411;-59
2024/01/06 06:14:40;;;;;;;16.75;11.55;;;;;;;;;;5155721;27;20074;-59
2024/01/06 06:17:07;;;;;;;17.20;12.07;;;;;;;;;;5155112;27;20108;-59
2024/01/06 06:19:34;;;;;;;16.10;11.80;;;;;;;;;;5155476;27;20050;-58
2024/01/06 06:22:01;;;;;;;16.85;11.27;;;;;;;;;;5155239;27;20055;-58
2024/01/06 06:24:29;;;;;;;17.58;12.07;;;;;;;;;;5155431;27;20050;-59
2024/01/06 06:26:56;;;;;;;16.42;11.55;;;;;;;;;;5154887;27;20053;-59
2024/01/06 06:29:22;;;;;;;17.45;12.25;;;;;;;;;;5155439;27;20057;-59
2024/01/06 06:31:49;;;;;;;19.20;12.18;;;;;;;;;;5154984;27;20072;-59
2024/01/06 06:34:16;;;;;;;19.30;13.07;;;;;;;;;;5155367;27;20046;-59
2024/01/06 06:36:43;;;;;;;17.73;12.25;;;;;;;;;;5154350;27;20053;-59
2024/01/06 06:39:10;;;;;;;17.55;12.68;;;;;;;;;;5155306;27;20496;-59
2024/01/06 06:41:39;;;;;;;17.45;11.43;;;;;;;;;;5154745;27;20051;-58
2024/01/06 06:44:05;;;;;;;17.02;12.07;;;;;;;;;;5154927;27;20059;-58
2024/01/06 06:46:32;;;;;;;18.08;12.40;;;;;;;;;;5154642;27;20050;-59
2024/01/06 06:48:59;;;;;;;16.45;11.30;;;;;;;;;;5154927;27;20058;-58
2024/01/06 06:51:27;;;;;;;16.77;11.43;;;;;;;;;;5154309;27;20051;-60
2024/01/06 06:53:53;;;;;;;18.35;12.60;;;;;;;;;;5155018;27;20054;-59
2024/01/06 06:56:20;;;;;;;18.05;11.95;;;;;;;;;;5154323;27;20050;-58
2024/01/06 06:58:49;;;;;;;17.30;11.63;;;;;;;;;;5154651;27;20452;-59
2024/01/06 07:01:15;;;;;;;17.90;11.82;;;;;;;;;;5154644;27;20427;-59
2024/01/06 07:03:43;;;;;;;16.27;11.43;;;;;;;;;;5154541;27;20057;-59
2024/01/06 07:06:12;;;;;;;16.85;11.95;;;;;;;;;;5154543;27;20051;-59
2024/01/06 07:08:39;;;;;;;17.50;11.40;;;;;;;;;;5154315;27;20046;-58
2024/01/06 07:11:06;;;;;;;16.95;11.43;;;;;;;;;;5154598;27;20058;-59
2024/01/06 07:13:33;;;;;;;16.25;11.50;;;;;;;;;;5154420;27;20050;-59
2024/01/06 07:16:01;;;;;;;16.33;11.77;;;;;;;;;;5154082;27;20055;-59
2024/01/06 07:18:28;;;;;;;15.90;11.13;;;;;;;;;;5154001;27;20364;-59
2024/01/06 07:20:55;;;;;;;17.90;11.70;;;;;;;;;;5154435;27;20047;-59
2024/01/06 07:23:22;;;;;;;16.65;11.50;;;;;;;;;;5154259;27;20054;-59
2024/01/06 07:25:49;;;;;;;15.75;10.52;;;;;;;;;;5154112;27;20048;-59
2024/01/06 07:28:15;;;;;;;16.67;11.23;;;;;;;;;;5154091;27;20047;-59
2024/01/06 07:30:42;;;;;;;17.90;12.05;;;;;;;;;;5154395;27;20408;-59
2024/01/06 07:33:11;;;;;;;15.93;11.20;;;;;;;;;;5153781;27;20062;-59
2024/01/06 07:35:42;;;;;;;17.58;11.65;;;;;;;;;;5153910;27;20057;-59
2024/01/06 07:38:10;;;;;;;15.23;10.77;;;;;;;;;;5154044;27;20054;-58
2024/01/06 07:40:36;;;;;;;15.77;11.02;;;;;;;;;;5154388;27;20047;-59
2024/01/06 07:43:04;;;;;;;17.13;11.88;;;;;;;;;;5153949;27;20047;-58
2024/01/06 07:45:31;;;;;;;15.98;11.35;;;;;;;;;;5153767;27;20054;-58
2024/01/06 07:47:58;;;;;;;16.00;11.32;;;;;;;;;;5154142;27;20053;-58
2024/01/06 07:50:26;;;;;;;16.98;11.75;;;;;;;;;;5157168;27;20050;-59
2024/01/06 07:52:53;;;;;;;16.77;11.40;;;;;;;;;;5157695;27;20054;-59
2024/01/06 07:55:20;;;;;;;15.95;10.98;;;;;;;;;;5158337;27;20051;-59
2024/01/06 07:57:47;;;;;;;16.15;11.65;;;;;;;;;;5157841;27;20053;-59
2024/01/06 08:00:15;;;;;;;20.02;14.07;;;;;;;;;;5158252;27;20050;-58
2024/01/06 08:02:41;;;;;;;17.63;12.95;;;;;;;;;;5157797;27;20495;-58
2024/01/06 08:05:08;;;;;;;17.75;12.68;;;;;;;;;;5157913;27;20053;-58
2024/01/06 08:07:37;;;;;;;16.13;12.30;;;;;;;;;;5157568;27;20069;-60
2024/01/06 08:10:05;;;;;;;15.05;11.50;;;;;;;;;;5157579;27;20054;-58
2024/01/06 08:12:32;;;;;;;15.98;11.88;;;;;;;;;;5157604;27;20047;-58
2024/01/06 08:14:59;;;;;;;17.45;12.88;;;;;;;;;;5157911;27;20062;-59
2024/01/06 08:17:26;;;;;;;18.05;13.82;;;;;;;;;;5157965;27;20410;-58
2024/01/06 08:19:52;;;;;;;16.17;12.40;;;;;;;;;;5158160;27;20051;-58
2024/01/06 08:22:19;;;;;;;16.88;12.38;;;;;;;;;;5157708;27;20058;-58
2024/01/06 08:24:48;;;;;;;15.57;11.40;;;;;;;;;;5157381;27;20396;-59
2024/01/06 08:27:14;;;;;;;15.40;11.30;;;;;;;;;;5157297;27;20054;-58
2024/01/06 08:29:41;;;;;;;16.67;12.25;;;;;;;;;;5157889;27;20046;-58
2024/01/06 08:32:09;;;;;;;17.27;12.55;;;;;;;;;;5157235;27;20058;-58
2024/01/06 08:34:36;;;;;;;15.98;12.38;;;;;;;;;;5157382;27;20054;-59
2024/01/06 08:37:04;;;;;;;13.77;10.25;;;;;;;;;;5156564;27;20051;-58
2024/01/06 08:39:30;;;;;;;13.98;10.98;;;;;;;;;;5156907;27;20053;-58
2024/01/06 08:41:59;;;;;;;15.00;11.15;;;;;;;;;;5157413;27;20090;-58
2024/01/06 08:44:26;;;;;;;16.35;11.70;;;;;;;;;;5157302;27;20491;-58
2024/01/06 08:46:52;;;;;;;14.63;10.90;;;;;;;;;;5157174;27;20054;-58
2024/01/06 08:49:19;;;;;;;14.73;10.98;;;;;;;;;;5156259;27;20054;-58
2024/01/06 08:51:46;;;;;;;15.02;11.38;;;;;;;;;;5156968;27;20053;-58
2024/01/06 08:54:13;;;;;;;15.45;11.85;;;;;;;;;;5157225;27;20399;-58
2024/01/06 08:56:40;;;;;;;16.17;12.07;;;;;;;;;;5156678;27;20050;-58
2024/01/06 08:59:08;;;;;;;18.25;13.18;;;;;;;;;;5157114;27;20053;-59
2024/01/06 09:01:36;;;;;;;15.82;11.70;;;;;;;;;;5156492;27;20488;-58
2024/01/06 09:04:02;;;;;;;20.88;13.18;;;;;;;;;;5156846;27;20061;-58
2024/01/06 09:06:29;;;;;;;18.98;12.98;;;;;;;;;;5157083;27;20055;-59
2024/01/06 09:08:56;;;;;;;21.05;14.57;;;;;;;;;;5156876;27;20057;-58
2024/01/06 09:11:23;;;;;;;23.90;15.77;;;;;;;;;;5156810;27;20058;-58
2024/01/06 09:13:52;;;;;;;26.52;18.33;;;;;;;;;;5156779;27;20503;-58
2024/01/06 09:16:20;;;;;;;23.45;16.08;;;;;;;;;;5156677;27;20057;-59
2024/01/06 09:18:47;;;;;;;25.67;17.27;;;;;;;;;;5156509;27;20053;-59
2024/01/06 09:21:14;;;;;;;24.92;16.73;;;;;;;;;;5156827;27;20415;-59
2024/01/06 09:23:41;;;;;;;25.20;16.50;;;;;;;;;;5156268;27;20050;-58
2024/01/06 09:26:07;;;;;;;25.02;16.70;;;;;;;;;;5156537;27;20051;-58
2024/01/06 09:28:34;;;;;;;23.52;15.70;;;;;;;;;;5156278;27;20047;-59
2024/01/06 09:31:01;;;;;;;24.45;15.73;;;;;;;;;;5156396;27;20051;-59
2024/01/06 09:33:29;;;;;;;26.58;15.98;;;;;;;;;;5156334;27;20399;-59
2024/01/06 09:35:56;;;;;;;28.45;17.02;;;;;;;;;;5156093;27;20432;-59
2024/01/06 09:38:23;;;;;;;26.02;16.05;;;;;;;;;;5156039;27;20372;-59
2024/01/06 09:40:50;;;;;;;21.33;14.18;;;;;;;;;;5155967;27;20404;-59
2024/01/06 09:43:17;;;;;;;18.60;12.90;;;;;;;;;;5156158;27;20062;-59
2024/01/06 09:45:46;;;;;;;18.50;12.48;;;;;;;;;;5156348;27;20050;-59
2024/01/06 09:48:14;;;;;;;14.82;10.05;;;;;;;;;;5156090;27;20387;-58
2024/01/06 09:50:44;;;;;;;18.00;11.90;;;;;;;;;;5156106;27;20054;-59
2024/01/06 09:53:12;;;;;;;16.10;11.50;;;;;;;;;;5155461;27;20070;-59
2024/01/06 09:55:39;;;;;;;15.88;10.80;;;;;;;;;;5155870;27;20438;-59
2024/01/06 09:58:06;;;;;;;16.20;10.98;;;;;;;;;;5155902;27;20047;-59
2024/01/06 10:00:33;;;;;;;15.73;10.45;;;;;;;;;;5155889;27;20357;-59
2024/01/06 10:03:00;;;;;;;14.27;10.30;;;;;;;;;;5155930;27;20062;-58
2024/01/06 10:05:27;;;;;;;14.07;9.13;;;;;;;;;;5155693;27;20062;-58
2024/01/06 10:07:55;;;;;;;11.57;8.10;;;;;;;;;;5155199;27;20400;-58
2024/01/06 10:10:23;;;;;;;11.75;8.25;;;;;;;;;;5155730;27;20051;-59
2024/01/06 10:12:53;;;;;;;10.77;7.80;;;;;;;;;;5154227;27;20055;-59
2024/01/06 10:15:20;;;;;;;12.25;8.02;;;;;;;;;;5155521;27;20050;-59
2024/01/06 10:17:47;;;;;;;12.05;8.25;;;;;;;;;;5155208;27;20399;-59
2024/01/06 10:20:15;;;;;;;12.30;8.80;;;;;;;;;;5155291;27;20050;-59
2024/01/06 10:22:42;;;;;;;12.85;8.85;;;;;;;;;;5155247;27;20414;-60
2024/01/06 10:25:11;;;;;;;13.93;8.95;;;;;;;;;;5155332;27;20050;-59
2024/01/06 10:27:38;;;;;;;11.75;7.90;;;;;;;;;;5154957;27;20050;-59
2024/01/06 10:30:06;;;;;;;12.43;8.73;;;;;;;;;;5154675;27;20058;-59
2024/01/06 10:32:33;;;;;;;12.25;8.80;;;;;;;;;;5155208;27;20237;-59
2024/01/06 10:35:01;;;;;;;11.93;7.35;;;;;;;;;;5155116;27;20514;-58
2024/01/06 10:37:28;;;;;;;12.60;8.05;;;;;;;;;;5154981;27;20055;-59
2024/01/06 10:40:06;;;;;;;12.27;7.40;;;;;;;;;;5154705;27;20050;-59
2024/01/06 10:42:34;;;;;;;10.15;7.32;;;;;;;;;;5154632;27;20047;-59
2024/01/06 10:45:01;;;;;;;10.85;7.63;;;;;;;;;;5154552;27;20053;-59
2024/01/06 10:47:30;;;;;;;10.30;7.75;;;;;;;;;;5154673;27;20499;-58
2024/01/06 10:49:58;;;;;;;9.93;7.05;;;;;;;;;;5154949;27;20050;-59
2024/01/06 10:52:25;;;;;;;10.40;7.20;;;;;;;;;;5154092;27;20054;-59
2024/01/06 10:54:54;;;;;;;9.15;6.68;;;;;;;;;;5154385;27;20050;-59
2024/01/06 10:57:21;;;;;;;8.90;6.18;;;;;;;;;;5154720;27;20411;-59
2024/01/06 10:59:51;;;;;;;8.63;6.20;;;;;;;;;;5154526;27;20057;-59
2024/01/06 11:02:17;;;;;;;8.13;6.07;;;;;;;;;;5154413;27;20132;-58
2024/01/06 11:04:45;;;;;;;8.32;6.18;;;;;;;;;;5154588;27;20476;-58
2024/01/06 11:07:12;;;;;;;8.75;6.05;;;;;;;;;;5154072;27;20051;-59
2024/01/06 11:09:42;;;;;;;11.45;8.10;;;;;;;;;;5154505;27;20051;-59
2024/01/06 11:12:09;;;;;;;9.68;6.93;;;;;;;;;;5154158;27;20051;-59
2024/01/06 11:14:37;;;;;;;8.93;6.47;;;;;;;;;;5154374;27;20062;-58
2024/01/06 11:17:06;;;;;;;9.52;6.45;;;;;;;;;;5154506;27;20051;-59
2024/01/06 11:19:52;;;;;;;8.20;6.07;;;;;;;;;;5154337;27;20050;-59
2024/01/06 11:22:18;;;;;;;9.80;7.05;;;;;;;;;;5154281;27;20051;-59
2024/01/06 11:24:48;;;;;;;9.52;6.43;;;;;;;;;;5154158;27;20046;-59
2024/01/06 11:27:18;;;;;;;10.75;6.50;;;;;;;;;;5154071;27;20047;-59
2024/01/06 11:29:45;;;;;;;11.20;7.82;;;;;;;;;;5154238;27;20058;-59
2024/01/06 11:32:20;;;;;;;12.18;7.82;;;;;;;;;;5153782;27;20058;-59
2024/01/06 11:34:50;;;;;;;12.20;8.57;;;;;;;;;;5153780;27;20361;-59
2024/01/06 11:37:21;;;;;;;12.52;8.45;;;;;;;;;;5154007;27;20055;-58
2024/01/06 11:39:48;;;;;;;10.38;7.00;;;;;;;;;;5154190;27;20061;-59
2024/01/06 11:42:14;;;;;;;11.15;7.20;;;;;;;;;;5154021;27;20506;-59
2024/01/06 11:44:44;;;;;;;10.88;6.88;;;;;;;;;;5154384;27;20077;-59
2024/01/06 11:47:12;;;;;;;11.05;8.02;;;;;;;;;;5154372;27;20497;-59
2024/01/06 11:49:45;;;;;;;11.40;7.90;;;;;;;;;;5154283;27;20050;-58
2024/01/06 11:52:12;;;;;;;11.23;7.68;;;;;;;;;;5153845;27;20066;-60
2024/01/06 11:54:39;;;;;;;11.45;8.07;;;;;;;;;;5153937;27;20058;-59
2024/01/06 11:57:06;;;;;;;12.30;8.05;;;;;;;;;;5153815;27;20055;-59
2024/01/06 11:59:32;;;;;;;12.80;8.30;;;;;;;;;;5154070;27;20046;-58
2024/01/06 12:01:59;;;;;;;12.75;9.48;;;;;;;;;;5153906;27;20051;-59
2024/01/06 12:04:27;;;;;;;13.02;8.85;;;;;;;;;;5154200;27;20364;-59
2024/01/06 12:07:05;;;;;;;14.98;9.50;;;;;;;;;;5153921;27;20051;-59
2024/01/06 12:09:32;;;;;;;14.95;9.65;;;;;;;;;;5154210;27;20400;-59
2024/01/06 12:12:01;;;;;;;12.85;9.05;;;;;;;;;;5153643;27;20493;-59
2024/01/06 12:14:29;;;;;;;14.93;10.10;;;;;;;;;;5153193;27;20054;-59
2024/01/06 12:17:00;;;;;;;13.18;9.20;;;;;;;;;;5153654;27;20071;-59
2024/01/06 12:19:27;;;;;;;16.13;9.68;;;;;;;;;;5153913;27;20050;-59
2024/01/06 12:21:53;;;;;;;11.32;8.05;;;;;;;;;;5153882;27;20484;-59
2024/01/06 12:24:22;;;;;;;12.70;8.10;;;;;;;;;;5153901;27;20054;-59
2024/01/06 12:26:51;;;;;;;13.88;8.75;;;;;;;;;;5153547;27;20050;-59
2024/01/06 12:29:18;;;;;;;12.25;8.85;;;;;;;;;;5153752;27;20049;-59
2024/01/06 12:31:44;;;;;;;12.27;8.10;;;;;;;;;;5153701;27;20058;-59
2024/01/06 12:34:11;;;;;;;12.25;8.05;;;;;;;;;;5153499;27;20070;-59
2024/01/06 12:36:39;;;;;;;11.90;8.10;;;;;;;;;;5156651;27;20065;-59
2024/01/06 12:39:06;;;;;;;14.60;10.25;;;;;;;;;;5157238;27;20391;-59
2024/01/06 12:41:38;;;;;;;17.25;11.00;;;;;;;;;;5157018;27;20047;-59
2024/01/06 12:44:04;;;;;;;19.25;12.82;;;;;;;;;;5157353;27;20468;-59
2024/01/06 12:46:31;;;;;;;16.27;10.88;;;;;;;;;;5157255;27;20058;-59
2024/01/06 12:48:58;;;;;;;15.43;11.13;;;;;;;;;;5157327;27;20050;-59
2024/01/06 12:51:25;;;;;;;17.67;11.52;;;;;;;;;;5156948;27;20399;-59
2024/01/06 12:53:52;;;;;;;18.10;12.70;;;;;;;;;;5156866;27;20065;-59
2024/01/06 12:56:19;;;;;;;19.95;14.55;;;;;;;;;;5157042;27;20061;-59
2024/01/06 12:58:47;;;;;;;22.00;15.50;;;;;;;;;;5156971;27;20055;-59
2024/01/06 13:01:14;;;;;;;28.55;20.13;;;;;;;;;;5156780;27;20047;-59
2024/01/06 13:03:41;;;;;;;25.75;18.27;;;;;;;;;;5157018;27;20464;-59
2024/01/06 13:06:08;;;;;;;28.83;20.08;;;;;;;;;;5156728;27;20051;-59
2024/01/06 13:08:34;;;;;;;26.67;17.75;;;;;;;;;;5156828;27;20046;-58
2024/01/06 13:11:01;;;;;;;27.35;19.27;;;;;;;;;;5156904;27;20047;-60
2024/01/06 13:13:28;;;;;;;24.05;15.98;;;;;;;;;;5156592;27;20054;-59
2024/01/06 13:15:56;;;;;;;25.67;15.80;;;;;;;;;;5156650;27;20529;-59
2024/01/06 13:18:23;;;;;;;25.90;18.30;;;;;;;;;;5156522;27;20043;-59
2024/01/06 13:20:50;;;;;;;25.30;17.80;;;;;;;;;;5156699;27;20475;-59
2024/01/06 13:23:17;;;;;;;21.90;14.43;;;;;;;;;;5156336;27;20062;-59
2024/01/06 13:25:44;;;;;;;21.02;14.82;;;;;;;;;;5156049;27;20411;-59
2024/01/06 13:28:11;;;;;;;23.38;15.63;;;;;;;;;;5156448;27;20047;-59
2024/01/06 13:30:39;;;;;;;22.85;15.65;;;;;;;;;;5156132;27;20062;-58
2024/01/06 13:33:07;;;;;;;24.15;15.50;;;;;;;;;;5156162;27;20077;-59
2024/01/06 13:35:36;;;;;;;19.83;14.30;;;;;;;;;;5156058;27;20403;-59
2024/01/06 13:38:04;;;;;;;19.67;14.27;;;;;;;;;;5156361;27;20407;-59
2024/01/06 13:40:30;;;;;;;25.50;16.25;;;;;;;;;;5155673;27;20844;-59
2024/01/06 13:42:58;;;;;;;23.80;16.10;;;;;;;;;;5155906;27;20046;-61
2024/01/06 13:45:26;;;;;;;24.90;16.25;;;;;;;;;;5156194;27;20506;-59
2024/01/06 13:47:53;;;;;;;19.00;13.85;;;;;;;;;;5156151;27;20047;-59
2024/01/06 13:50:21;;;;;;;20.00;13.70;;;;;;;;;;5156001;27;20388;-58
2024/01/06 13:52:48;;;;;;;16.48;11.50;;;;;;;;;;5155600;27;20522;-59
2024/01/06 13:55:15;;;;;;;16.40;11.35;;;;;;;;;;5156257;27;20410;-59
2024/01/06 13:57:42;;;;;;;15.65;11.23;;;;;;;;;;5155581;27;20429;-58
2024/01/06 14:00:10;;;;;;;15.55;11.15;;;;;;;;;;5155635;27;20057;-59
2024/01/06 14:02:37;;;;;;;13.27;9.25;;;;;;;;;;5155314;27;20046;-58
2024/01/06 14:05:04;;;;;;;12.55;8.40;;;;;;;;;;5155375;27;20058;-59
2024/01/06 14:07:33;;;;;;;11.98;7.43;;;;;;;;;;5155759;27;20077;-59
2024/01/06 14:10:00;;;;;;;10.77;7.63;;;;;;;;;;5155368;27;20054;-58
2024/01/06 14:12:27;;;;;;;11.35;7.75;;;;;;;;;;5155135;27;20051;-58
2024/01/06 14:14:54;;;;;;;13.00;8.52;;;;;;;;;;5155798;27;20508;-59
2024/01/06 14:17:21;;;;;;;11.20;8.00;;;;;;;;;;5155720;27;20502;-58
2024/01/06 14:19:47;;;;;;;13.10;8.60;;;;;;;;;;5155654;27;20373;-58
2024/01/06 14:22:15;;;;;;;12.45;9.20;;;;;;;;;;5155719;27;20051;-59
2024/01/06 14:24:43;;;;;;;11.48;7.30;;;;;;;;;;5155417;27;20479;-58